Time;durP1;ratioP1;P1;durP2;ratioP2;P2;SDS_P1;SDS_P2;PMS_P1;PMS_P2;Temp;Humidity;BMP_temperature;BMP_pressure;BME280_temperature;BME280_humidity;BME280_pressure;Samples;Min_cycle;Max_cycle;Signal;HPM_P1;HPM_P2
2021/04/10 00:00:55;;;;;;;9.38;2.40;;;;;;;12.61;44.73;98357.06;3582344;40;20048;-63
2021/04/10 00:03:23;;;;;;;7.50;2.25;;;;;;;12.61;44.86;98351.75;3582339;40;20389;-64
2021/04/10 00:05:49;;;;;;;5.18;1.83;;;;;;;12.63;44.62;98334.59;3581706;40;20331;-64
2021/04/10 00:08:16;;;;;;;4.13;2.08;;;;;;;12.62;44.62;98343.59;3581123;40;20049;-64
2021/04/10 00:10:44;;;;;;;8.43;1.88;;;;;;;12.65;44.68;98334.38;3584496;40;20048;-65
2021/04/10 00:13:11;;;;;;;5.65;2.22;;;;;;;12.65;44.66;98337.03;3584334;40;20056;-64
2021/04/10 00:15:37;;;;;;;3.88;1.50;;;;;;;12.68;44.70;98336.59;3582580;40;20053;-64
2021/04/10 00:18:04;;;;;;;5.55;2.22;;;;;;;12.65;44.45;98323.78;3583061;40;20052;-64
2021/04/10 00:20:31;;;;;;;6.60;1.90;;;;;;;12.66;44.67;98328.06;3582894;40;20037;-65
2021/04/10 00:22:58;;;;;;;4.15;1.83;;;;;;;12.60;44.62;98345.63;3581637;40;20049;-65
2021/04/10 00:25:25;;;;;;;5.93;1.70;;;;;;;12.62;44.59;98332.19;3583604;40;20375;-65
2021/04/10 00:27:56;;;;;;;5.78;1.60;;;;;;;12.61;44.77;98336.69;3583947;40;20085;-64
2021/04/10 00:30:23;;;;;;;2.90;1.50;;;;;;;12.61;44.73;98330.53;3581696;40;20128;-64
2021/04/10 00:32:51;;;;;;;6.97;1.90;;;;;;;12.61;44.93;98336.69;3579178;40;20052;-65
2021/04/10 00:35:17;;;;;;;4.00;1.70;;;;;;;12.56;44.95;98333.84;3578972;40;20055;-63
2021/04/10 00:37:44;;;;;;;3.15;1.35;;;;;;;12.51;45.48;98336.34;3579231;40;20396;-64
2021/04/10 00:40:12;;;;;;;3.45;1.70;;;;;;;12.49;45.38;98338.41;3578773;40;20130;-64
2021/04/10 00:42:39;;;;;;;5.15;1.63;;;;;;;12.49;45.59;98342.88;3578861;40;20087;-64
2021/04/10 00:45:09;;;;;;;4.70;1.75;;;;;;;12.46;45.88;98322.13;3577854;40;20057;-65
2021/04/10 00:47:36;;;;;;;5.40;1.70;;;;;;;12.44;45.87;98330.28;3578953;40;20067;-66
2021/04/10 00:50:04;;;;;;;4.78;2.03;;;;;;;12.43;46.06;98339.25;3579236;40;20395;-63
2021/04/10 00:52:32;;;;;;;2.38;1.80;;;;;;;12.44;46.07;98342.72;3579064;40;20434;-64
2021/04/10 00:55:03;;;;;;;5.78;2.35;;;;;;;12.43;46.24;98341.91;3578789;40;20130;-63
2021/04/10 00:57:30;;;;;;;2.75;1.83;;;;;;;12.39;46.46;98344.16;3579336;40;20399;-65
2021/04/10 00:59:57;;;;;;;4.15;1.90;;;;;;;12.43;46.63;98341.09;3578161;40;20125;-63
2021/04/10 01:02:26;;;;;;;4.10;1.88;;;;;;;12.43;46.74;98331.31;3578986;40;20056;-63
2021/04/10 01:04:53;;;;;;;4.47;1.85;;;;;;;12.44;46.56;98332.91;3578738;40;20060;-64
2021/04/10 01:07:20;;;;;;;4.65;2.28;;;;;;;12.46;46.80;98344.13;3579015;40;20053;-63
2021/04/10 01:09:52;;;;;;;4.53;2.10;;;;;;;12.45;47.03;98336.38;3578090;40;20057;-64
2021/04/10 01:12:40;;;;;;;3.72;1.65;;;;;;;12.46;47.25;98335.38;3577875;40;20048;-64
2021/04/10 01:15:18;;;;;;;7.18;2.00;;;;;;;12.50;47.23;98342.69;3579146;40;20085;-64
2021/04/10 01:17:50;;;;;;;4.07;1.67;;;;;;;12.48;47.39;98341.25;3578590;40;20119;-64
2021/04/10 01:20:50;;;;;;;4.35;1.50;;;;;;;12.48;47.55;98338.59;3580874;40;20040;-63
2021/04/10 01:23:32;;;;;;;5.43;1.73;;;;;;;12.48;47.28;98336.75;3583708;40;20029;-64
2021/04/10 01:26:23;;;;;;;4.28;2.15;;;;;;;12.47;47.88;98335.16;3583209;40;20319;-64
2021/04/10 01:28:54;;;;;;;4.60;2.20;;;;;;;12.46;47.73;98333.53;3580151;40;20067;-64
2021/04/10 01:31:27;;;;;;;4.75;1.50;;;;;;;12.47;47.86;98337.78;3580318;40;20045;-64
2021/04/10 01:33:59;;;;;;;5.35;1.95;;;;;;;12.48;48.26;98349.22;3581214;40;20044;-64
2021/04/10 01:36:30;;;;;;;11.30;2.10;;;;;;;12.48;48.33;98341.25;3579192;40;20101;-64
2021/04/10 01:38:58;;;;;;;3.67;2.08;;;;;;;12.42;48.72;98345.59;3579700;40;20081;-64
2021/04/10 01:41:26;;;;;;;5.70;1.92;;;;;;;12.45;48.83;98342.53;3581296;40;20135;-64
2021/04/10 01:43:56;;;;;;;3.28;1.85;;;;;;;12.47;49.05;98352.91;3582189;40;20041;-64
2021/04/10 01:46:25;;;;;;;3.40;2.00;;;;;;;12.42;49.00;98344.78;3581533;40;20053;-64
2021/04/10 01:48:54;;;;;;;2.95;1.98;;;;;;;12.42;49.22;98344.78;3580832;40;20045;-63
2021/04/10 01:51:23;;;;;;;3.33;1.83;;;;;;;12.38;49.67;98350.50;3580192;40;20311;-63
2021/04/10 01:53:51;;;;;;;4.70;2.08;;;;;;;12.34;50.15;98362.56;3579929;40;20130;-64
2021/04/10 01:56:19;;;;;;;5.15;2.30;;;;;;;12.39;50.15;98352.13;3578582;40;20400;-64
2021/04/10 01:58:55;;;;;;;6.15;2.00;;;;;;;12.37;50.00;98351.53;3580202;40;20444;-64
2021/04/10 02:01:40;;;;;;;4.72;2.10;;;;;;;12.36;50.28;98346.44;3579169;40;20033;-64
2021/04/10 02:04:09;;;;;;;7.75;2.15;;;;;;;12.36;50.87;98357.03;3578918;40;20055;-64
2021/04/10 02:06:38;;;;;;;5.00;2.00;;;;;;;12.34;50.80;98365.22;3579137;40;20068;-64
2021/04/10 02:09:10;;;;;;;5.15;2.30;;;;;;;12.32;51.59;98358.50;3578873;40;20055;-64
2021/04/10 02:11:55;;;;;;;5.68;2.13;;;;;;;12.23;52.11;98357.94;3578872;40;20052;-64
2021/04/10 02:14:34;;;;;;;4.32;1.95;;;;;;;12.16;53.05;98357.16;3578560;40;20041;-64
2021/04/10 02:17:06;;;;;;;3.45;1.92;;;;;;;12.24;52.86;98362.22;3579117;40;20037;-63
2021/04/10 02:19:39;;;;;;;6.45;2.63;;;;;;;12.18;53.38;98376.31;3579170;40;20059;-64
2021/04/10 02:22:10;;;;;;;3.63;1.90;;;;;;;12.18;53.61;98384.28;3580049;40;20319;-64
2021/04/10 02:24:37;;;;;;;7.97;2.42;;;;;;;12.09;54.25;98370.47;3578887;40;20427;-64
2021/04/10 02:27:07;;;;;;;4.72;2.00;;;;;;;12.06;54.98;98383.31;3580539;40;20049;-63
2021/04/10 02:29:44;;;;;;;2.88;2.03;;;;;;;11.89;56.32;98383.81;3579632;40;20311;-63
2021/04/10 02:32:21;;;;;;;5.45;2.50;;;;;;;11.74;57.19;98393.03;3579269;40;20364;-63
2021/04/10 02:35:00;;;;;;;4.55;2.13;;;;;;;11.61;58.17;98384.09;3578908;40;20065;-63
2021/04/10 02:37:28;;;;;;;2.60;1.90;;;;;;;11.50;59.45;98394.53;3579190;40;20296;-63
2021/04/10 02:39:55;;;;;;;4.25;2.22;;;;;;;11.47;59.54;98389.63;3578785;40;20057;-64
2021/04/10 02:42:25;;;;;;;4.05;2.25;;;;;;;11.41;60.31;98394.75;3578535;40;20064;-64
2021/04/10 02:44:54;;;;;;;7.47;2.67;;;;;;;11.37;60.36;98393.53;3579669;40;20081;-64
2021/04/10 02:47:25;;;;;;;4.85;2.45;;;;;;;11.32;60.88;98398.66;3578739;40;20076;-64
2021/04/10 02:49:56;;;;;;;4.25;2.17;;;;;;;11.32;61.20;98403.13;3580445;40;20056;-64
2021/04/10 02:52:32;;;;;;;4.15;2.85;;;;;;;11.28;61.38;98399.28;3578628;40;20040;-64
2021/04/10 02:55:02;;;;;;;4.93;2.53;;;;;;;11.27;61.70;98397.66;3578708;40;20070;-64
2021/04/10 02:57:30;;;;;;;3.13;2.35;;;;;;;11.29;61.94;98403.53;3578666;40;20411;-64
2021/04/10 03:00:02;;;;;;;3.95;2.08;;;;;;;11.18;62.21;98399.69;3578222;40;20044;-65
2021/04/10 03:02:33;;;;;;;5.05;2.38;;;;;;;11.16;62.53;98396.44;3578658;40;20474;-64
2021/04/10 03:05:01;;;;;;;4.20;2.38;;;;;;;11.16;62.57;98396.44;3580337;40;20082;-64
2021/04/10 03:07:29;;;;;;;3.97;2.40;;;;;;;11.09;62.82;98398.28;3579618;40;20293;-64
2021/04/10 03:09:57;;;;;;;6.28;2.85;;;;;;;11.05;63.20;98397.88;3580446;40;20089;-64
2021/04/10 03:12:26;;;;;;;5.97;2.50;;;;;;;10.99;63.50;98390.75;3579844;40;20134;-64
2021/04/10 03:14:54;;;;;;;4.65;2.80;;;;;;;11.05;63.32;98394.41;3578580;40;20037;-64
2021/04/10 03:17:30;;;;;;;5.15;3.00;;;;;;;10.96;63.76;98398.28;3578639;40;20390;-64
2021/04/10 03:20:04;;;;;;;6.18;2.92;;;;;;;10.93;64.26;98396.03;3578579;40;20041;-65
2021/04/10 03:22:34;;;;;;;7.25;3.30;;;;;;;10.85;64.87;98397.88;3578466;40;20045;-65
2021/04/10 03:25:00;;;;;;;7.75;2.95;;;;;;;10.79;64.65;98398.69;3578598;40;20044;-65
2021/04/10 03:27:28;;;;;;;2.97;2.30;;;;;;;10.75;65.40;98400.13;3578441;40;20052;-65
2021/04/10 03:29:58;;;;;;;3.15;2.47;;;;;;;10.80;65.04;98402.16;3578527;40;20053;-65
2021/04/10 03:32:39;;;;;;;6.05;2.85;;;;;;;10.82;65.16;98405.44;3578319;40;20059;-65
2021/04/10 03:35:08;;;;;;;5.30;2.60;;;;;;;10.87;65.06;98400.34;3578393;40;20049;-65
2021/04/10 03:37:35;;;;;;;3.90;3.15;;;;;;;10.78;65.27;98409.50;3578543;40;20064;-64
2021/04/10 03:40:03;;;;;;;5.85;2.85;;;;;;;10.80;65.30;98413.53;3578688;40;20091;-64
2021/04/10 03:42:37;;;;;;;4.50;3.28;;;;;;;10.81;65.30;98417.00;3579105;40;20057;-65
2021/04/10 03:45:11;;;;;;;7.15;2.70;;;;;;;10.84;65.36;98416.59;3578053;40;20051;-65
2021/04/10 03:47:55;;;;;;;4.93;2.83;;;;;;;10.75;65.81;98423.13;3578455;40;20060;-65
2021/04/10 03:50:24;;;;;;;6.70;2.90;;;;;;;10.74;66.02;98429.44;3579265;40;20049;-65
2021/04/10 03:52:55;;;;;;;7.38;3.08;;;;;;;10.73;65.71;98436.50;3578542;40;20045;-64
2021/04/10 03:55:21;;;;;;;6.65;3.63;;;;;;;10.75;65.39;98436.34;3579834;40;20049;-65
2021/04/10 03:57:51;;;;;;;4.85;2.70;;;;;;;10.71;64.51;98432.47;3578267;40;20049;-65
2021/04/10 04:00:20;;;;;;;7.90;2.50;;;;;;;10.72;64.36;98426.16;3578392;40;20045;-66
2021/04/10 04:02:56;;;;;;;6.72;2.85;;;;;;;10.69;64.45;98432.66;3577852;40;20045;-66
2021/04/10 04:05:23;;;;;;;6.00;2.25;;;;;;;10.65;64.48;98434.06;3579277;40;20052;-66
2021/04/10 04:07:50;;;;;;;4.78;2.30;;;;;;;10.60;64.16;98439.16;3579087;40;20053;-66
2021/04/10 04:10:17;;;;;;;4.25;2.03;;;;;;;10.62;64.25;98440.59;3579125;40;20044;-66
2021/04/10 04:12:44;;;;;;;3.55;2.10;;;;;;;10.61;63.74;98432.84;3579071;40;20029;-66
2021/04/10 04:15:53;;;;;;;5.07;2.35;;;;;;;10.59;63.94;98445.47;3580029;40;20049;-65
2021/04/10 04:18:22;;;;;;;5.95;2.60;;;;;;;10.55;63.56;98445.03;3575629;40;20053;-64
2021/04/10 04:20:48;;;;;;;3.88;2.28;;;;;;;10.55;63.77;98450.34;3578846;40;20049;-65
2021/04/10 04:23:15;;;;;;;3.58;2.05;;;;;;;10.51;63.12;98462.31;3579268;40;20045;-64
2021/04/10 04:25:42;;;;;;;4.47;2.30;;;;;;;10.44;63.24;98448.28;3578783;40;20048;-64
2021/04/10 04:28:09;;;;;;;5.05;2.38;;;;;;;10.47;62.90;98453.16;3579020;40;20084;-64
2021/04/10 04:30:36;;;;;;;4.85;2.10;;;;;;;10.33;62.82;98454.97;3577984;40;20048;-64
2021/04/10 04:33:03;;;;;;;6.70;2.13;;;;;;;10.39;62.55;98461.28;3578865;40;20049;-65
2021/04/10 04:35:30;;;;;;;7.68;2.40;;;;;;;10.39;62.41;98470.00;3578800;40;20109;-64
2021/04/10 04:37:57;;;;;;;7.68;2.92;;;;;;;10.33;62.16;98467.38;3578147;40;20323;-64
2021/04/10 04:40:25;;;;;;;7.65;2.53;;;;;;;10.34;62.02;98464.53;3579068;40;20052;-65
2021/04/10 04:42:51;;;;;;;5.07;2.20;;;;;;;10.28;61.98;98469.78;3579123;40;20037;-64
2021/04/10 04:45:18;;;;;;;4.35;2.20;;;;;;;10.26;62.07;98474.44;3579179;40;20051;-64
2021/04/10 04:47:45;;;;;;;4.05;2.15;;;;;;;10.33;62.13;98484.03;3579257;40;20122;-64
2021/04/10 04:50:13;;;;;;;3.47;1.88;;;;;;;10.27;62.07;98481.34;3578842;40;20052;-64
2021/04/10 04:52:40;;;;;;;5.30;2.40;;;;;;;10.27;62.27;98479.53;3578922;40;20053;-64
2021/04/10 04:55:08;;;;;;;5.45;2.25;;;;;;;10.33;62.07;98483.22;3578729;40;20060;-64
2021/04/10 04:57:35;;;;;;;5.40;2.28;;;;;;;10.35;62.15;98494.41;3579129;40;20049;-65
2021/04/10 05:00:03;;;;;;;4.40;2.30;;;;;;;10.34;61.98;98495.41;3578821;40;20048;-65
2021/04/10 05:02:30;;;;;;;5.32;2.08;;;;;;;10.35;62.18;98503.13;3579139;40;20045;-63
2021/04/10 05:04:57;;;;;;;4.55;2.22;;;;;;;10.33;62.06;98505.16;3578007;40;20057;-64
2021/04/10 05:07:25;;;;;;;4.78;2.13;;;;;;;10.25;62.27;98517.75;3579278;40;20289;-64
2021/04/10 05:09:53;;;;;;;5.68;2.20;;;;;;;10.16;62.66;98514.41;3578940;40;20045;-64
2021/04/10 05:12:20;;;;;;;4.43;2.10;;;;;;;10.09;62.65;98524.13;3578212;40;20044;-65
2021/04/10 05:14:47;;;;;;;5.95;2.45;;;;;;;10.06;62.99;98522.69;3579540;40;20044;-63
2021/04/10 05:17:14;;;;;;;4.35;1.55;;;;;;;10.08;62.92;98527.78;3581687;40;20053;-64
2021/04/10 05:19:41;;;;;;;5.10;2.38;;;;;;;10.06;62.97;98535.09;3583896;40;20040;-63
2021/04/10 05:22:09;;;;;;;4.97;2.20;;;;;;;10.07;62.99;98528.78;3582800;40;20049;-64
2021/04/10 05:24:36;;;;;;;4.07;2.08;;;;;;;10.08;62.74;98535.69;3582445;40;20049;-64
2021/04/10 05:27:05;;;;;;;5.47;2.15;;;;;;;10.04;62.54;98545.03;3581661;40;20053;-64
2021/04/10 05:29:32;;;;;;;7.07;2.30;;;;;;;9.95;62.33;98539.09;3582278;40;20074;-64
2021/04/10 05:32:00;;;;;;;8.25;2.63;;;;;;;9.88;62.37;98547.00;3583303;40;20048;-65
2021/04/10 05:34:27;;;;;;;4.00;2.17;;;;;;;9.89;62.21;98542.53;3580409;40;20412;-64
2021/04/10 05:36:53;;;;;;;4.32;2.30;;;;;;;9.89;62.00;98545.16;3580094;40;20069;-65
2021/04/10 05:39:21;;;;;;;3.13;1.85;;;;;;;9.81;62.16;98554.03;3579935;40;20394;-65
2021/04/10 05:41:48;;;;;;;3.13;2.20;;;;;;;9.80;62.07;98551.59;3579947;40;20048;-65
2021/04/10 05:44:16;;;;;;;5.03;1.98;;;;;;;9.78;62.02;98561.53;3579961;40;20319;-65
2021/04/10 05:46:42;;;;;;;4.15;1.73;;;;;;;9.74;62.06;98557.66;3580551;40;20056;-65
2021/04/10 05:49:10;;;;;;;5.63;1.95;;;;;;;9.68;61.93;98567.97;3579429;40;20057;-64
2021/04/10 05:51:37;;;;;;;2.67;1.90;;;;;;;9.71;62.06;98581.78;3580101;40;20408;-64
2021/04/10 05:54:04;;;;;;;4.60;1.98;;;;;;;9.76;62.09;98576.75;3580151;40;20072;-64
2021/04/10 05:56:32;;;;;;;4.80;2.00;;;;;;;9.81;61.87;98574.34;3580433;40;20041;-63
2021/04/10 05:58:59;;;;;;;4.00;1.88;;;;;;;9.76;61.89;98574.94;3578882;40;20401;-63
2021/04/10 06:01:27;;;;;;;3.45;2.03;;;;;;;9.78;61.67;98586.09;3580332;40;20053;-65
2021/04/10 06:03:55;;;;;;;6.75;1.80;;;;;;;9.78;61.65;98595.84;3580500;40;20047;-65
2021/04/10 06:06:22;;;;;;;4.60;1.92;;;;;;;9.75;61.01;98590.94;3582552;40;20045;-65
2021/04/10 06:08:49;;;;;;;2.40;1.50;;;;;;;9.69;60.79;98605.75;3582930;40;20067;-65
2021/04/10 06:11:16;;;;;;;2.72;1.77;;;;;;;9.72;60.80;98601.91;3582006;40;20049;-64
2021/04/10 06:13:43;;;;;;;4.68;1.77;;;;;;;9.72;60.59;98601.91;3581305;40;20048;-65
2021/04/10 06:16:10;;;;;;;2.95;1.73;;;;;;;9.80;60.59;98602.56;3580961;40;20049;-65
2021/04/10 06:18:38;;;;;;;3.65;1.98;;;;;;;9.84;60.01;98606.47;3581322;40;20505;-65
2021/04/10 06:21:06;;;;;;;3.38;1.60;;;;;;;9.86;59.88;98612.34;3580697;40;20060;-64
2021/04/10 06:23:33;;;;;;;2.97;1.52;;;;;;;9.83;59.33;98615.38;3580467;40;20099;-65
2021/04/10 06:26:00;;;;;;;3.85;1.77;;;;;;;9.73;59.57;98620.19;3580058;40;20049;-64
2021/04/10 06:28:28;;;;;;;5.55;2.30;;;;;;;9.60;59.28;98618.25;3579721;40;20056;-63
2021/04/10 06:30:56;;;;;;;3.75;1.25;;;;;;;9.63;59.20;98611.75;3579738;40;20085;-64
2021/04/10 06:33:24;;;;;;;2.97;1.40;;;;;;;9.65;59.13;98615.84;3580393;40;20037;-66
2021/04/10 06:35:54;;;;;;;3.03;1.90;;;;;;;9.61;59.14;98614.59;3580209;40;20048;-63
2021/04/10 06:38:21;;;;;;;2.45;1.40;;;;;;;9.67;58.93;98624.41;3579485;40;20052;-64
2021/04/10 06:40:48;;;;;;;2.55;1.73;;;;;;;9.59;59.05;98623.72;3580385;40;20081;-64
2021/04/10 06:43:16;;;;;;;2.50;1.60;;;;;;;9.71;58.94;98632.75;3580929;40;20053;-64
2021/04/10 06:45:43;;;;;;;4.57;2.30;;;;;;;9.76;58.71;98632.19;3580280;40;20045;-65
2021/04/10 06:48:13;;;;;;;1.50;1.20;;;;;;;9.74;58.39;98629.72;3579568;40;20328;-65
2021/04/10 06:50:42;;;;;;;2.35;1.27;;;;;;;9.62;58.53;98633.91;3580453;40;20096;-64
2021/04/10 06:53:15;;;;;;;3.17;1.60;;;;;;;9.66;58.48;98629.88;3579886;40;20045;-65
2021/04/10 06:55:48;;;;;;;2.83;1.60;;;;;;;9.70;58.71;98632.94;3580913;40;20094;-64
2021/04/10 06:58:21;;;;;;;4.82;1.98;;;;;;;9.79;58.56;98635.25;3580514;40;20052;-65
2021/04/10 07:00:52;;;;;;;5.93;2.05;;;;;;;9.84;58.30;98639.97;3581228;40;20064;-64
2021/04/10 07:03:22;;;;;;;3.22;2.10;;;;;;;9.78;58.38;98630.97;3580711;40;20041;-64
2021/04/10 07:05:50;;;;;;;3.67;1.77;;;;;;;9.79;58.18;98631.78;3580813;40;20060;-65
2021/04/10 07:08:21;;;;;;;5.15;1.63;;;;;;;9.83;58.44;98633.03;3581679;40;20056;-64
2021/04/10 07:10:49;;;;;;;4.22;2.00;;;;;;;9.88;58.00;98638.59;3583439;40;20059;-65
2021/04/10 07:13:17;;;;;;;3.55;1.42;;;;;;;9.83;57.97;98633.84;3583747;40;20044;-64
2021/04/10 07:15:45;;;;;;;6.13;2.20;;;;;;;9.85;58.00;98636.31;3582444;40;20045;-66
2021/04/10 07:18:12;;;;;;;4.15;2.30;;;;;;;9.83;57.75;98631.22;3582758;40;20029;-64
2021/04/10 07:20:39;;;;;;;8.50;2.63;;;;;;;9.87;57.60;98624.53;3583457;40;20044;-64
2021/04/10 07:23:09;;;;;;;2.65;1.77;;;;;;;9.81;57.59;98630.59;3583470;40;20048;-64
2021/04/10 07:25:39;;;;;;;6.30;1.67;;;;;;;9.78;57.86;98630.97;3584130;40;20489;-64
2021/04/10 07:28:22;;;;;;;3.17;1.60;;;;;;;9.90;57.78;98633.91;3584137;40;20045;-64
2021/04/10 07:31:00;;;;;;;2.50;1.77;;;;;;;9.88;57.68;98631.47;3583786;40;20130;-64
2021/04/10 07:33:29;;;;;;;2.60;1.60;;;;;;;10.00;57.45;98629.13;3583548;40;20049;-64
2021/04/10 07:35:55;;;;;;;3.20;1.60;;;;;;;10.09;57.39;98632.44;3582689;40;20044;-65
2021/04/10 07:38:30;;;;;;;3.72;1.88;;;;;;;10.07;57.09;98637.88;3583603;40;20126;-65
2021/04/10 07:41:00;;;;;;;4.55;1.92;;;;;;;10.07;57.35;98639.72;3583493;40;20441;-64
2021/04/10 07:43:28;;;;;;;3.28;1.58;;;;;;;10.01;57.13;98637.84;3582295;40;20080;-65
2021/04/10 07:46:14;;;;;;;3.97;1.92;;;;;;;10.07;57.52;98639.72;3581247;40;20064;-64
2021/04/10 07:48:59;;;;;;;4.43;2.33;;;;;;;10.11;57.40;98647.06;3580140;40;20049;-65
2021/04/10 07:51:27;;;;;;;8.05;1.98;;;;;;;10.12;57.18;98648.72;3580633;40;20045;-62
2021/04/10 07:53:54;;;;;;;3.63;1.42;;;;;;;10.22;57.05;98648.34;3580561;40;20049;-64
2021/04/10 07:56:22;;;;;;;4.05;1.48;;;;;;;10.22;57.06;98642.25;3582022;40;20040;-65
2021/04/10 07:58:49;;;;;;;6.05;1.70;;;;;;;10.21;57.12;98638.81;3581775;40;20221;-64
2021/04/10 08:01:17;;;;;;;4.25;1.60;;;;;;;10.24;57.33;98646.31;3580751;40;20045;-64
2021/04/10 08:03:47;;;;;;;6.00;1.90;;;;;;;10.25;57.10;98641.91;3580533;40;20037;-64
2021/04/10 08:06:16;;;;;;;3.53;1.65;;;;;;;10.14;57.32;98651.97;3580640;40;20119;-64
2021/04/10 08:08:53;;;;;;;5.22;1.95;;;;;;;10.10;57.43;98649.91;3580604;40;20127;-64
2021/04/10 08:11:35;;;;;;;3.97;1.55;;;;;;;10.08;57.50;98651.91;3579699;40;20049;-65
2021/04/10 08:14:06;;;;;;;3.33;1.65;;;;;;;10.17;57.55;98662.16;3580041;40;20038;-65
2021/04/10 08:16:39;;;;;;;2.60;1.55;;;;;;;10.10;57.43;98649.91;3579688;40;20037;-65
2021/04/10 08:19:06;;;;;;;3.15;1.60;;;;;;;10.01;57.90;98657.16;3579943;40;20435;-66
2021/04/10 08:21:41;;;;;;;2.55;1.90;;;;;;;10.04;58.27;98658.56;3580425;40;20060;-66
2021/04/10 08:24:27;;;;;;;;;;;;;;;10.04;58.61;98655.94;3580177;40;20423;-65
2021/04/10 08:26:56;;;;;;;4.50;2.15;;;;;;;10.10;58.69;98653.34;3579714;40;19937;-65
2021/04/10 08:29:24;;;;;;;3.47;1.73;;;;;;;10.13;58.65;98666.19;3579983;40;20093;-65
2021/04/10 08:31:53;;;;;;;3.50;1.90;;;;;;;10.15;59.22;98652.78;3579183;40;20049;-65
2021/04/10 08:34:20;;;;;;;3.65;1.70;;;;;;;10.13;59.17;98657.44;3580098;40;20426;-65
2021/04/10 08:36:51;;;;;;;3.97;1.98;;;;;;;10.09;59.62;98657.00;3582034;40;20048;-65
2021/04/10 08:39:20;;;;;;;7.95;2.15;;;;;;;10.17;59.57;98663.97;3579334;40;20045;-64
2021/04/10 08:41:52;;;;;;;5.57;2.83;;;;;;;10.06;59.40;98662.69;3579282;40;20380;-64
2021/04/10 08:44:24;;;;;;;2.92;1.65;;;;;;;10.07;59.79;98666.94;3579242;40;20056;-65
2021/04/10 08:46:52;;;;;;;4.15;1.95;;;;;;;10.07;59.45;98666.94;3579414;40;20479;-65
2021/04/10 08:49:20;;;;;;;5.22;2.33;;;;;;;10.06;59.39;98669.78;3578816;40;20053;-64
2021/04/10 08:51:52;;;;;;;3.03;2.00;;;;;;;10.07;59.53;98669.56;3578938;40;20049;-64
2021/04/10 08:54:21;;;;;;;7.00;2.20;;;;;;;10.04;59.21;98666.50;3579308;40;20134;-64
2021/04/10 08:56:50;;;;;;;4.35;2.17;;;;;;;10.02;59.15;98676.47;3580176;40;20052;-64
2021/04/10 08:59:24;;;;;;;2.55;1.88;;;;;;;10.05;59.18;98662.88;3580405;40;20481;-63
2021/04/10 09:02:09;;;;;;;10.23;2.75;;;;;;;10.12;58.86;98672.47;3578138;40;20063;-64
2021/04/10 09:05:05;;;;;;;16.65;3.33;;;;;;;10.22;58.74;98666.84;3578183;40;20426;-64
2021/04/10 09:08:05;;;;;;;5.30;2.10;;;;;;;10.22;58.19;98660.75;3578979;40;20134;-64
2021/04/10 09:10:53;;;;;;;6.45;2.05;;;;;;;10.31;57.93;98659.63;3579201;40;20081;-64
2021/04/10 09:13:46;;;;;;;4.47;2.17;;;;;;;10.31;57.97;98664.91;3578340;40;20049;-65
2021/04/10 09:16:37;;;;;;;3.22;1.60;;;;;;;10.32;57.72;98664.69;3582147;40;20060;-66
2021/04/10 09:19:13;;;;;;;2.45;1.65;;;;;;;10.23;57.55;98660.53;3581911;40;20052;-66
2021/04/10 09:21:43;;;;;;;4.95;1.85;;;;;;;10.26;57.97;98669.94;3581290;40;20079;-66
2021/04/10 09:24:22;;;;;;;3.53;1.83;;;;;;;10.34;57.64;98659.22;3582784;40;20049;-65
2021/04/10 09:26:56;;;;;;;5.90;3.38;;;;;;;10.33;57.50;98671.63;3583650;40;20320;-67
2021/04/10 09:29:23;;;;;;;10.60;5.50;;;;;;;10.28;57.77;98668.72;3583638;40;20056;-66
2021/04/10 09:31:57;;;;;;;6.93;2.40;;;;;;;10.37;57.86;98675.53;3584273;40;20393;-67
2021/04/10 09:34:42;;;;;;;;;;;;;;;10.38;57.66;98674.50;3579649;40;20052;-66
2021/04/10 09:37:11;;;;;;;4.40;2.10;;;;;;;10.47;57.53;98666.41;3578656;40;20018;-66
2021/04/10 09:39:56;;;;;;;4.80;1.92;;;;;;;10.42;57.70;98677.56;3579909;40;20064;-66
2021/04/10 09:42:44;;;;;;;5.50;2.35;;;;;;;10.51;57.79;98680.88;3578905;40;20049;-66
2021/04/10 09:45:14;;;;;;;9.07;2.55;;;;;;;10.51;57.70;98678.22;3578752;40;20060;-67
2021/04/10 09:48:20;;;;;;;4.28;3.78;;;;;;;10.55;57.69;98668.91;3578841;40;20400;-66
2021/04/10 09:51:12;;;;;;;4.22;1.77;;;;;;;10.50;57.65;98666.84;3579000;40;20045;-66
2021/04/10 09:53:39;;;;;;;6.97;1.88;;;;;;;10.56;57.65;98659.94;3577811;40;20041;-67
2021/04/10 09:56:09;;;;;;;6.47;2.20;;;;;;;10.58;57.68;98665.88;3577832;40;20049;-67
2021/04/10 09:58:41;;;;;;;5.15;2.83;;;;;;;10.56;57.57;98667.88;3577564;40;20041;-66
2021/04/10 10:01:11;;;;;;;4.38;1.67;;;;;;;10.50;57.82;98664.19;3578702;40;20057;-67
2021/04/10 10:03:38;;;;;;;3.00;1.90;;;;;;;10.50;57.86;98669.50;3580445;40;20396;-67
2021/04/10 10:06:31;;;;;;;4.00;1.92;;;;;;;10.47;57.90;98661.94;3580494;40;20057;-67
2021/04/10 10:08:58;;;;;;;6.60;2.63;;;;;;;10.49;58.34;98664.38;3579941;40;20404;-67
2021/04/10 10:11:25;;;;;;;9.82;7.35;;;;;;;10.51;57.68;98649.16;3580539;40;20076;-67
2021/04/10 10:13:55;;;;;;;3.05;2.17;;;;;;;10.49;57.44;98649.38;3580516;40;20052;-67
2021/04/10 10:16:32;;;;;;;4.93;2.25;;;;;;;10.55;57.50;98655.69;3579488;40;20126;-67
2021/04/10 10:19:05;;;;;;;4.88;2.20;;;;;;;10.65;57.04;98649.03;3580519;40;20194;-67
2021/04/10 10:21:32;;;;;;;9.30;5.93;;;;;;;10.66;56.68;98648.00;3579343;40;20312;-67
2021/04/10 10:24:00;;;;;;;33.22;17.13;;;;;;;10.67;56.42;98646.19;3581571;40;20059;-67
2021/04/10 10:26:29;;;;;;;5.03;3.45;;;;;;;10.61;56.10;98644.31;3583007;40;20044;-67
2021/04/10 10:29:00;;;;;;;3.90;2.47;;;;;;;10.64;55.63;98647.38;3582719;40;20048;-67
2021/04/10 10:31:29;;;;;;;6.53;2.80;;;;;;;10.65;55.71;98642.91;3582282;40;20049;-67
2021/04/10 10:34:05;;;;;;;13.05;9.00;;;;;;;10.65;55.49;98642.91;3582676;40;20047;-67
2021/04/10 10:36:33;;;;;;;8.48;6.35;;;;;;;10.62;55.45;98638.03;3580470;40;20052;-67
2021/04/10 10:39:00;;;;;;;6.68;2.30;;;;;;;10.76;55.27;98637.06;3580663;40;20060;-67
2021/04/10 10:41:28;;;;;;;7.78;2.45;;;;;;;10.73;55.21;98637.44;3580921;40;20048;-67
2021/04/10 10:44:00;;;;;;;5.38;2.42;;;;;;;10.80;55.04;98638.28;3583552;40;20044;-68
2021/04/10 10:46:27;;;;;;;2.88;1.65;;;;;;;10.90;54.61;98638.75;3582177;40;20041;-67
2021/04/10 10:48:54;;;;;;;6.60;2.00;;;;;;;10.91;54.18;98631.63;3583812;40;20052;-67
2021/04/10 10:51:22;;;;;;;1.77;1.60;;;;;;;10.88;54.10;98632.84;3582197;40;20041;-67
2021/04/10 10:53:51;;;;;;;2.00;1.45;;;;;;;10.84;53.71;98628.94;3582433;40;20041;-67
2021/04/10 10:56:19;;;;;;;3.17;1.58;;;;;;;10.88;53.78;98627.53;3584127;40;20045;-67
2021/04/10 10:58:48;;;;;;;4.55;1.63;;;;;;;10.91;53.19;98618.41;3583703;40;20325;-67
2021/04/10 11:01:20;;;;;;;4.30;1.90;;;;;;;10.95;53.09;98619.63;3582625;40;20045;-67
2021/04/10 11:03:59;;;;;;;5.57;1.90;;;;;;;10.99;52.93;98617.41;3579380;40;20045;-68
2021/04/10 11:06:29;;;;;;;2.55;1.40;;;;;;;11.03;52.88;98613.34;3579934;40;20044;-67
2021/04/10 11:09:00;;;;;;;3.60;1.65;;;;;;;11.11;52.21;98616.63;3579517;40;20056;-67
2021/04/10 11:11:34;;;;;;;1.88;1.40;;;;;;;11.09;51.76;98617.84;3579671;40;20134;-67
2021/04/10 11:14:01;;;;;;;9.65;2.17;;;;;;;11.02;52.02;98614.34;3579786;40;20404;-67
2021/04/10 11:16:28;;;;;;;4.22;1.40;;;;;;;11.04;51.62;98614.97;3579803;40;20332;-67
2021/04/10 11:18:57;;;;;;;3.20;1.60;;;;;;;11.02;51.57;98615.19;3579602;40;20060;-67
2021/04/10 11:21:30;;;;;;;5.13;2.75;;;;;;;10.97;51.42;98607.03;3579465;40;20085;-67
2021/04/10 11:24:06;;;;;;;7.88;2.83;;;;;;;11.04;51.74;98607.03;3579541;40;20131;-67
2021/04/10 11:26:39;;;;;;;11.60;2.65;;;;;;;11.15;51.24;98603.81;3579961;40;20538;-66
2021/04/10 11:29:20;;;;;;;2.38;1.60;;;;;;;11.17;50.88;98604.41;3579741;40;20048;-68
2021/04/10 11:32:10;;;;;;;4.35;1.98;;;;;;;11.23;51.06;98598.34;3580125;40;20044;-65
2021/04/10 11:34:40;;;;;;;6.95;2.50;;;;;;;11.23;51.16;98608.09;3579849;40;20052;-66
2021/04/10 11:37:10;;;;;;;4.72;1.77;;;;;;;11.16;51.00;98613.38;3579487;40;20044;-66
2021/04/10 11:39:55;;;;;;;9.43;2.10;;;;;;;11.12;51.70;98604.22;3579330;40;20052;-66
2021/04/10 11:42:24;;;;;;;8.38;2.53;;;;;;;10.99;52.52;98604.19;3578423;40;20047;-66
2021/04/10 11:44:52;;;;;;;4.15;2.30;;;;;;;11.02;52.44;98606.41;3581236;40;20056;-66
2021/04/10 11:47:21;;;;;;;3.08;1.50;;;;;;;10.96;52.98;98607.22;3579681;40;20404;-66
2021/04/10 11:49:49;;;;;;;4.68;1.92;;;;;;;11.02;53.08;98603.78;3579675;40;20057;-67
2021/04/10 11:52:18;;;;;;;3.40;1.70;;;;;;;10.97;53.26;98600.91;3579647;40;20089;-66